createdAt,value
2017-07-18T00:01:50.678Z,3.85
2017-07-18T00:04:25.282Z,3.58
2017-07-18T00:06:59.846Z,3.95
2017-07-18T00:09:34.603Z,4.60
2017-07-18T00:12:09.117Z,4.75
2017-07-18T00:14:43.732Z,4.30
2017-07-18T00:17:18.117Z,4.62
2017-07-18T00:19:52.683Z,4.30
2017-07-18T00:22:27.265Z,4.40
2017-07-18T00:25:02.412Z,4.75
2017-07-18T00:27:36.842Z,4.00
2017-07-18T00:30:11.328Z,3.70
2017-07-18T00:32:45.941Z,4.75
2017-07-18T00:35:20.491Z,4.15
2017-07-18T00:37:55.028Z,4.68
2017-07-18T00:40:29.525Z,4.90
2017-07-18T00:43:03.911Z,4.95
2017-07-18T00:45:38.514Z,4.32
2017-07-18T00:48:13.153Z,4.50
2017-07-18T00:50:47.638Z,4.50
2017-07-18T00:53:22.187Z,4.93
2017-07-18T00:55:56.682Z,5.62
2017-07-18T00:58:31.217Z,5.45
2017-07-18T01:01:05.710Z,4.72
2017-07-18T01:03:40.195Z,5.20
2017-07-18T01:06:14.616Z,5.25
2017-07-18T01:08:49.213Z,4.32
2017-07-18T01:11:23.835Z,4.90
2017-07-18T01:13:58.335Z,3.92
2017-07-18T01:16:32.893Z,5.78
2017-07-18T01:19:07.429Z,4.90
2017-07-18T01:21:41.954Z,5.07
2017-07-18T01:24:17.123Z,5.18
2017-07-18T01:26:51.572Z,4.80
2017-07-18T01:29:26.091Z,4.20
2017-07-18T01:32:00.649Z,4.82
2017-07-18T01:34:36.166Z,5.28
2017-07-18T01:37:10.643Z,4.28
2017-07-18T01:39:45.244Z,4.55
2017-07-18T01:42:19.627Z,4.57
2017-07-18T01:44:54.368Z,4.65
2017-07-18T01:47:28.810Z,4.70
2017-07-18T01:50:04.029Z,4.78
2017-07-18T01:52:39.305Z,4.62
2017-07-18T01:55:14.083Z,4.40
2017-07-18T01:57:48.588Z,5.05
2017-07-18T02:00:23.121Z,4.12
2017-07-18T02:02:57.615Z,5.00
2017-07-18T02:05:32.183Z,4.95
2017-07-18T02:08:06.672Z,5.12
2017-07-18T02:10:41.242Z,5.12
2017-07-18T02:13:15.751Z,4.53
2017-07-18T02:15:50.401Z,5.50
2017-07-18T02:18:24.960Z,5.18
2017-07-18T02:20:59.523Z,5.25
2017-07-18T02:23:34.123Z,4.82
2017-07-18T02:26:08.557Z,4.65
2017-07-18T02:28:43.176Z,4.07
2017-07-18T02:31:17.744Z,5.12
2017-07-18T02:33:52.167Z,4.80
2017-07-18T02:36:26.817Z,4.37
2017-07-18T02:39:01.347Z,5.62
2017-07-18T02:41:35.890Z,6.37
2017-07-18T02:44:10.423Z,6.97
2017-07-18T02:46:44.936Z,5.12
2017-07-18T02:49:20.271Z,6.22
2017-07-18T02:51:54.731Z,4.80
2017-07-18T02:54:29.352Z,5.50
2017-07-18T02:57:04.025Z,5.25
2017-07-18T02:59:38.444Z,5.35
2017-07-18T03:02:12.852Z,4.75
2017-07-18T03:04:47.436Z,6.15
2017-07-18T03:07:22.008Z,5.32
2017-07-18T03:09:56.587Z,4.97
2017-07-18T03:12:31.144Z,5.32
2017-07-18T03:15:05.744Z,6.07
2017-07-18T03:17:41.100Z,5.20
2017-07-18T03:20:15.676Z,5.43
2017-07-18T03:22:50.272Z,4.05
2017-07-18T03:25:25.578Z,4.22
2017-07-18T03:28:00.085Z,4.78
2017-07-18T03:30:34.644Z,5.25
2017-07-18T03:33:09.209Z,5.90
2017-07-18T03:35:43.703Z,5.80
2017-07-18T03:38:18.270Z,5.40
2017-07-18T03:40:52.832Z,5.03
2017-07-18T03:43:27.476Z,5.12
2017-07-18T03:46:01.968Z,6.03
2017-07-18T03:48:36.550Z,5.87
2017-07-18T03:51:11.124Z,5.65
2017-07-18T03:53:45.664Z,5.93
2017-07-18T03:56:20.160Z,5.05
2017-07-18T03:58:54.745Z,5.25
2017-07-18T04:01:30.019Z,6.00
2017-07-18T04:04:04.576Z,6.00
2017-07-18T04:06:39.177Z,6.65
2017-07-18T04:09:13.746Z,5.22
2017-07-18T04:11:48.315Z,6.85
2017-07-18T04:14:23.064Z,5.97
2017-07-18T04:16:57.474Z,4.90
2017-07-18T04:19:31.919Z,4.57
2017-07-18T04:22:06.404Z,6.05
2017-07-18T04:24:40.976Z,5.70
2017-07-18T04:27:15.567Z,6.53
2017-07-18T04:29:50.405Z,5.00
2017-07-18T04:32:24.871Z,6.20
2017-07-18T04:35:00.252Z,6.55
2017-07-18T04:37:34.823Z,6.75
2017-07-18T04:40:09.313Z,6.72
2017-07-18T04:42:44.036Z,6.25
2017-07-18T04:45:18.535Z,4.68
2017-07-18T04:47:53.097Z,8.65
2017-07-18T04:50:27.587Z,6.37
2017-07-18T04:53:02.097Z,5.20
2017-07-18T04:55:36.630Z,7.57
2017-07-18T04:58:11.184Z,6.03
2017-07-18T05:00:45.756Z,5.75
2017-07-18T05:03:20.207Z,5.93
2017-07-18T05:05:54.792Z,6.05
2017-07-18T05:08:29.355Z,6.00
2017-07-18T05:11:03.857Z,6.87
2017-07-18T05:13:38.498Z,5.10
2017-07-18T05:16:12.881Z,5.45
2017-07-18T05:18:48.404Z,5.30
2017-07-18T05:21:22.842Z,5.35
2017-07-18T05:23:57.316Z,4.30
2017-07-18T05:26:31.895Z,3.95
2017-07-18T05:29:06.652Z,3.90
2017-07-18T05:31:41.461Z,6.10
2017-07-18T05:34:16.019Z,4.20
2017-07-18T05:36:50.439Z,5.90
2017-07-18T05:39:25.966Z,7.18
2017-07-18T05:42:00.451Z,5.85
2017-07-18T05:44:35.206Z,4.20
2017-07-18T05:47:09.709Z,4.32
2017-07-18T05:49:44.491Z,5.47
2017-07-18T05:52:19.048Z,4.05
2017-07-18T05:54:53.783Z,4.45
2017-07-18T05:57:28.308Z,5.87
2017-07-18T06:00:02.796Z,3.47
2017-07-18T06:02:37.366Z,3.62
2017-07-18T06:05:12.116Z,3.53
2017-07-18T06:07:46.619Z,3.45
2017-07-18T06:10:21.169Z,3.40
2017-07-18T06:12:55.564Z,3.03
2017-07-18T06:15:30.104Z,2.72
2017-07-18T06:18:04.528Z,4.55
2017-07-18T06:20:39.308Z,2.72
2017-07-18T06:23:13.812Z,2.75
2017-07-18T06:25:48.379Z,2.70
2017-07-18T06:28:22.840Z,2.87
2017-07-18T06:30:57.472Z,3.10
2017-07-18T06:33:32.020Z,2.20
2017-07-18T06:36:06.389Z,2.07
2017-07-18T06:38:41.024Z,3.40
2017-07-18T06:41:15.604Z,2.50
2017-07-18T06:43:50.123Z,2.87
2017-07-18T06:46:24.684Z,2.50
2017-07-18T06:48:59.254Z,3.20
2017-07-18T06:51:34.107Z,2.70
2017-07-18T06:54:08.573Z,2.70
2017-07-18T06:56:43.034Z,2.70
2017-07-18T06:59:18.308Z,2.50
2017-07-18T07:01:52.911Z,2.80
2017-07-18T07:04:27.485Z,2.30
2017-07-18T07:07:01.904Z,2.50
2017-07-18T07:09:37.056Z,2.60
2017-07-18T07:12:11.665Z,2.43
2017-07-18T07:14:46.076Z,2.83
2017-07-18T07:17:21.383Z,2.40
2017-07-18T07:19:55.867Z,3.40
2017-07-18T07:22:30.334Z,2.43
2017-07-18T07:25:04.726Z,3.10
2017-07-18T07:27:39.456Z,2.67
2017-07-18T07:30:13.902Z,2.90
2017-07-18T07:32:48.523Z,2.63
2017-07-18T07:35:23.119Z,2.80
2017-07-18T07:37:57.676Z,2.37
2017-07-18T07:40:32.260Z,2.60
2017-07-18T07:43:06.696Z,2.43
2017-07-18T07:45:41.625Z,2.22
2017-07-18T07:48:16.081Z,3.20
2017-07-18T07:50:50.467Z,3.35
2017-07-18T07:53:24.838Z,3.10
2017-07-18T07:55:59.700Z,2.62
2017-07-18T07:58:34.220Z,2.35
2017-07-18T08:01:09.383Z,3.08
2017-07-18T08:03:44.668Z,3.95
2017-07-18T08:06:19.526Z,3.25
2017-07-18T08:08:54.039Z,3.40
2017-07-18T08:11:28.555Z,2.97
2017-07-18T08:14:03.103Z,3.25
2017-07-18T08:16:37.937Z,3.60
2017-07-18T08:19:12.431Z,2.90
2017-07-18T08:21:47.791Z,3.42
2017-07-18T08:24:23.088Z,3.08
2017-07-18T08:26:58.540Z,2.85
2017-07-18T08:29:32.954Z,3.25
2017-07-18T08:32:07.455Z,2.80
2017-07-18T08:34:42.603Z,3.17
2017-07-18T08:37:17.384Z,3.08
2017-07-18T08:39:51.808Z,3.35
2017-07-18T08:42:26.342Z,2.40
2017-07-18T08:45:00.932Z,2.90
2017-07-18T08:47:35.557Z,2.90
2017-07-18T08:50:09.964Z,3.03
2017-07-18T08:52:44.568Z,3.70
2017-07-18T08:55:19.152Z,2.90
2017-07-18T08:57:53.697Z,2.65
2017-07-18T09:00:28.160Z,3.05
2017-07-18T09:03:02.603Z,3.58
2017-07-18T09:05:37.864Z,3.53
2017-07-18T09:08:12.240Z,3.05
2017-07-18T09:10:46.831Z,3.03
2017-07-18T09:13:21.402Z,3.17
2017-07-18T09:15:56.051Z,3.08
2017-07-18T09:18:30.642Z,3.15
2017-07-18T09:21:05.447Z,2.93
2017-07-18T09:23:40.576Z,2.97
2017-07-18T09:26:14.980Z,3.03
2017-07-18T09:28:49.556Z,3.75
2017-07-18T09:31:24.024Z,2.53
2017-07-18T09:33:58.532Z,3.20
2017-07-18T09:36:34.143Z,3.70
2017-07-18T09:39:08.636Z,3.25
2017-07-18T09:41:43.027Z,3.00
2017-07-18T09:44:17.635Z,3.30
2017-07-18T09:46:52.319Z,3.28
2017-07-18T09:49:26.871Z,4.25
2017-07-18T09:52:01.376Z,3.47
2017-07-18T09:54:35.935Z,3.30
2017-07-18T09:57:10.407Z,2.83
2017-07-18T09:59:45.031Z,3.80
2017-07-18T10:02:19.547Z,3.50
2017-07-18T10:04:54.705Z,3.08
2017-07-18T10:07:30.003Z,2.90
2017-07-18T10:10:05.372Z,3.70
2017-07-18T10:12:39.895Z,3.10
2017-07-18T10:15:15.337Z,4.25
2017-07-18T10:17:49.860Z,3.53
2017-07-18T10:20:24.432Z,3.67
2017-07-18T10:22:58.887Z,3.92
2017-07-18T10:25:34.267Z,4.07
2017-07-18T10:28:08.760Z,3.60
2017-07-18T10:30:43.197Z,4.30
2017-07-18T10:33:17.694Z,4.10
2017-07-18T10:35:52.240Z,3.70
2017-07-18T10:38:26.856Z,3.53
2017-07-18T10:41:01.359Z,3.63
2017-07-18T10:43:35.826Z,3.30
2017-07-18T10:46:10.371Z,3.60
2017-07-18T10:48:44.939Z,3.60
2017-07-18T10:51:19.364Z,4.00
2017-07-18T10:53:53.781Z,4.10
2017-07-18T10:56:28.152Z,4.03
2017-07-18T10:59:02.743Z,3.57
2017-07-18T11:01:37.136Z,3.73
2017-07-18T11:04:11.783Z,3.53
2017-07-18T11:06:46.183Z,3.90
2017-07-18T11:09:20.563Z,3.17
2017-07-18T11:11:55.224Z,3.63
2017-07-18T11:14:29.748Z,3.77
2017-07-18T11:17:04.167Z,3.90
2017-07-18T11:19:38.584Z,4.00
2017-07-18T11:22:13.320Z,4.10
2017-07-18T11:24:47.719Z,4.17
2017-07-18T11:27:22.286Z,3.67
2017-07-18T11:30:04.623Z,3.53
2017-07-18T11:32:38.970Z,4.37
2017-07-18T11:35:13.338Z,3.67
2017-07-18T11:37:47.827Z,4.77
2017-07-18T11:40:22.399Z,3.83
2017-07-18T11:42:57.279Z,3.80
2017-07-18T11:45:31.784Z,3.90
2017-07-18T11:48:06.324Z,3.90
2017-07-18T11:50:40.839Z,3.60
2017-07-18T11:53:15.346Z,3.53
2017-07-18T11:55:49.918Z,3.70
2017-07-18T11:58:24.370Z,4.23
2017-07-18T12:00:59.143Z,4.27
2017-07-18T12:03:33.723Z,4.33
2017-07-18T12:06:08.183Z,3.57
2017-07-18T12:08:42.571Z,3.53
2017-07-18T12:11:17.028Z,3.80
2017-07-18T12:13:51.665Z,4.33
2017-07-18T12:16:26.204Z,3.87
2017-07-18T12:19:02.348Z,3.83
2017-07-18T12:21:36.744Z,3.63
2017-07-18T12:24:11.256Z,3.53
2017-07-18T12:26:45.623Z,4.27
2017-07-18T12:29:20.174Z,3.77
2017-07-18T12:31:54.585Z,4.20
2017-07-18T12:34:28.998Z,3.83
2017-07-18T12:37:04.573Z,4.20
2017-07-18T12:39:39.062Z,4.00
2017-07-18T12:42:13.516Z,3.50
2017-07-18T12:44:48.116Z,3.70
2017-07-18T12:47:22.639Z,3.83
2017-07-18T12:49:57.213Z,3.80
2017-07-18T12:52:31.820Z,4.10
2017-07-18T12:55:06.347Z,4.00
2017-07-18T12:57:40.859Z,4.30
2017-07-18T13:00:15.423Z,4.10
2017-07-18T13:02:49.987Z,4.37
2017-07-18T13:05:24.723Z,4.23
2017-07-18T13:07:59.309Z,3.90
2017-07-18T13:10:33.920Z,3.90
2017-07-18T13:13:09.279Z,4.10
2017-07-18T13:15:46.605Z,3.97
2017-07-18T13:18:21.134Z,4.20
2017-07-18T13:20:56.330Z,3.60
2017-07-18T13:23:30.792Z,3.40
2017-07-18T13:26:05.403Z,3.83
2017-07-18T13:28:39.940Z,3.90
2017-07-18T13:31:14.427Z,4.40
2017-07-18T13:33:49.183Z,4.63
2017-07-18T13:36:24.492Z,4.03
2017-07-18T13:38:59.056Z,3.97
2017-07-18T13:41:33.651Z,4.13
2017-07-18T13:44:08.091Z,4.57
2017-07-18T13:46:42.616Z,3.87
2017-07-18T13:49:17.712Z,4.13
2017-07-18T13:51:52.243Z,4.00
2017-07-18T13:54:26.795Z,3.57
2017-07-18T13:57:01.146Z,4.00
2017-07-18T13:59:36.651Z,4.13
2017-07-18T14:02:11.045Z,3.47
2017-07-18T14:04:45.783Z,4.37
2017-07-18T14:07:20.155Z,4.53
2017-07-18T14:09:56.139Z,3.77
2017-07-18T14:12:31.512Z,3.53
2017-07-18T14:15:05.999Z,4.03
2017-07-18T14:17:40.579Z,3.80
2017-07-18T14:20:15.852Z,3.40
2017-07-18T14:22:50.777Z,3.93
2017-07-18T14:25:25.348Z,3.77
2017-07-18T14:27:59.972Z,3.50
2017-07-18T14:30:35.265Z,3.50
2017-07-18T14:33:09.855Z,4.30
2017-07-18T14:35:44.335Z,3.67
2017-07-18T14:38:18.802Z,3.73
2017-07-18T14:40:53.383Z,4.23
2017-07-18T14:43:27.851Z,3.30
2017-07-18T14:46:02.429Z,3.37
2017-07-18T14:48:36.939Z,3.70
2017-07-18T14:51:11.475Z,4.40
2017-07-18T14:53:46.314Z,3.00
2017-07-18T14:56:20.800Z,3.50
2017-07-18T14:58:55.960Z,3.50
2017-07-18T15:01:30.490Z,3.40
2017-07-18T15:04:04.952Z,4.40
2017-07-18T15:06:39.524Z,3.83
2017-07-18T15:09:14.261Z,3.33
2017-07-18T15:11:48.751Z,3.70
2017-07-18T15:14:23.615Z,3.67
2017-07-18T15:16:58.338Z,3.60
2017-07-18T15:19:32.859Z,4.03
2017-07-18T15:22:07.393Z,3.87
2017-07-18T15:24:41.899Z,3.83
2017-07-18T15:27:16.403Z,4.33
2017-07-18T15:29:50.930Z,4.60
2017-07-18T15:32:26.195Z,3.90
2017-07-18T15:35:00.756Z,3.63
2017-07-18T15:37:35.250Z,3.97
2017-07-18T15:40:09.719Z,3.53
2017-07-18T15:42:44.264Z,6.30
2017-07-18T15:45:18.657Z,4.10
2017-07-18T15:47:53.419Z,3.33
2017-07-18T15:50:27.940Z,4.80
2017-07-18T15:53:02.595Z,4.90
2017-07-18T15:55:37.171Z,3.70
2017-07-18T15:58:11.736Z,3.57
2017-07-18T16:00:46.067Z,4.40
2017-07-18T16:03:20.970Z,3.97
2017-07-18T16:05:55.445Z,6.70
2017-07-18T16:08:29.855Z,4.33
2017-07-18T16:11:04.275Z,5.47
2017-07-18T16:13:39.759Z,5.77
2017-07-18T16:16:14.168Z,3.83
2017-07-18T16:18:48.720Z,5.57
2017-07-18T16:21:23.346Z,4.67
2017-07-18T16:23:57.815Z,4.07
2017-07-18T16:26:32.383Z,4.30
2017-07-18T16:29:06.921Z,4.13
2017-07-18T16:31:41.491Z,4.67
2017-07-18T16:34:16.031Z,4.60
2017-07-18T16:36:50.542Z,4.33
2017-07-18T16:39:25.655Z,4.20
2017-07-18T16:42:00.427Z,4.00
2017-07-18T16:44:34.895Z,3.97
2017-07-18T16:47:09.496Z,3.43
2017-07-18T16:49:43.875Z,3.83
2017-07-18T16:52:18.503Z,4.43
2017-07-18T16:54:53.140Z,3.80
2017-07-18T16:57:27.515Z,3.80
2017-07-18T17:00:02.176Z,3.73
2017-07-18T17:02:36.699Z,3.97
2017-07-18T17:05:11.119Z,4.80
2017-07-18T17:07:45.580Z,4.43
2017-07-18T17:10:20.156Z,4.47
2017-07-18T17:12:55.455Z,3.87
2017-07-18T17:15:30.049Z,4.20
2017-07-18T17:18:04.558Z,3.90
2017-07-18T17:20:39.123Z,4.50
2017-07-18T17:23:13.635Z,4.30
2017-07-18T17:25:48.132Z,4.37
2017-07-18T17:28:22.728Z,3.42
2017-07-18T17:30:57.243Z,4.43
2017-07-18T17:33:31.768Z,4.13
2017-07-18T17:36:06.343Z,3.90
2017-07-18T17:38:40.916Z,4.82
2017-07-18T17:41:15.471Z,3.83
2017-07-18T17:43:49.895Z,3.97
2017-07-18T17:46:24.328Z,4.50
2017-07-18T17:48:58.889Z,5.32
2017-07-18T17:51:33.483Z,3.53
2017-07-18T17:54:12.280Z,4.37
2017-07-18T17:56:47.388Z,3.78
2017-07-18T17:59:22.899Z,3.83
2017-07-18T18:01:57.491Z,4.10
2017-07-18T18:04:32.079Z,4.70
2017-07-18T18:07:06.581Z,4.53
2017-07-18T18:09:41.879Z,3.47
2017-07-18T18:12:16.486Z,4.28
2017-07-18T18:14:51.078Z,4.60
2017-07-18T18:17:25.815Z,4.10
2017-07-18T18:20:00.340Z,4.00
2017-07-18T18:22:35.038Z,4.28
2017-07-18T18:25:09.543Z,4.53
2017-07-18T18:27:44.019Z,3.65
2017-07-18T18:30:18.632Z,4.03
2017-07-18T18:32:53.127Z,4.50
2017-07-18T18:35:27.619Z,3.58
2017-07-18T18:38:02.115Z,4.68
2017-07-18T18:40:36.551Z,3.80
2017-07-18T18:43:10.987Z,4.68
2017-07-18T18:45:46.247Z,5.53
2017-07-18T18:48:21.003Z,4.05
2017-07-18T18:50:56.742Z,4.37
2017-07-18T18:53:32.791Z,4.40
2017-07-18T18:56:07.301Z,3.72
2017-07-18T18:58:41.767Z,5.03
2017-07-18T19:01:16.400Z,5.15
2017-07-18T19:03:50.828Z,4.57
2017-07-18T19:06:25.412Z,3.87
2017-07-18T19:08:59.943Z,5.05
2017-07-18T19:11:34.547Z,4.65
2017-07-18T19:14:09.167Z,4.75
2017-07-18T19:16:43.559Z,6.03
2017-07-18T19:19:18.007Z,5.10
2017-07-18T19:21:52.635Z,5.10
2017-07-18T19:24:27.037Z,4.85
2017-07-18T19:27:01.676Z,5.20
2017-07-18T19:29:36.247Z,4.28
2017-07-18T19:32:10.802Z,4.78
2017-07-18T19:34:45.926Z,5.00
2017-07-18T19:37:20.492Z,5.57
2017-07-18T19:39:55.075Z,4.90
2017-07-18T19:42:29.457Z,5.30
2017-07-18T19:45:04.167Z,3.95
2017-07-18T19:47:39.352Z,5.47
2017-07-18T19:50:13.803Z,4.70
2017-07-18T19:52:48.371Z,5.80
2017-07-18T19:55:22.948Z,4.95
2017-07-18T19:57:58.192Z,5.22
2017-07-18T20:00:32.775Z,4.50
2017-07-18T20:03:07.638Z,4.57
2017-07-18T20:05:42.211Z,5.10
2017-07-18T20:08:16.834Z,5.72
2017-07-18T20:10:51.422Z,4.32
2017-07-18T20:13:26.028Z,4.20
2017-07-18T20:16:00.546Z,5.07
2017-07-18T20:18:34.999Z,5.55
2017-07-18T20:21:09.751Z,6.10
2017-07-18T20:23:44.529Z,5.15
2017-07-18T20:26:18.991Z,5.57
2017-07-18T20:28:53.620Z,4.60
2017-07-18T20:31:28.146Z,4.78
2017-07-18T20:34:02.944Z,4.37
2017-07-18T20:36:37.450Z,6.97
2017-07-18T20:39:11.880Z,5.20
2017-07-18T20:41:46.203Z,5.30
2017-07-18T20:44:20.620Z,7.10
2017-07-18T20:46:55.121Z,5.70
2017-07-18T20:49:29.528Z,5.78
2017-07-18T20:52:04.279Z,5.95
2017-07-18T20:54:38.784Z,6.00
2017-07-18T20:57:13.360Z,6.37
2017-07-18T20:59:47.995Z,5.25
2017-07-18T21:02:22.520Z,5.32
2017-07-18T21:04:56.984Z,8.00
2017-07-18T21:07:31.607Z,4.90
2017-07-18T21:10:06.132Z,6.70
2017-07-18T21:12:40.699Z,5.47
2017-07-18T21:15:15.264Z,5.28
2017-07-18T21:17:49.988Z,5.87
2017-07-18T21:20:24.527Z,5.22
2017-07-18T21:22:59.163Z,4.53
2017-07-18T21:25:33.727Z,5.40
2017-07-18T21:28:08.307Z,5.90
2017-07-18T21:30:42.723Z,5.05
2017-07-18T21:33:17.260Z,5.12
2017-07-18T21:35:52.603Z,5.00
2017-07-18T21:38:27.193Z,4.97
2017-07-18T21:41:02.523Z,5.75
2017-07-18T21:43:36.984Z,5.75
2017-07-18T21:46:11.528Z,5.75
2017-07-18T21:48:46.011Z,4.90
2017-07-18T21:51:20.531Z,5.10
2017-07-18T21:53:55.783Z,5.50
2017-07-18T21:56:30.287Z,5.60
2017-07-18T21:59:04.821Z,4.65
2017-07-18T22:01:39.423Z,4.62
2017-07-18T22:04:13.967Z,5.53
2017-07-18T22:06:48.584Z,5.28
2017-07-18T22:09:23.175Z,5.03
2017-07-18T22:11:57.591Z,6.12
2017-07-18T22:14:32.972Z,5.10
2017-07-18T22:17:08.163Z,5.22
2017-07-18T22:19:42.537Z,5.00
2017-07-18T22:22:17.123Z,5.43
2017-07-18T22:24:51.696Z,5.12
2017-07-18T22:27:26.265Z,5.12
2017-07-18T22:30:01.042Z,5.10
2017-07-18T22:32:36.219Z,5.90
2017-07-18T22:35:11.382Z,6.10
2017-07-18T22:37:45.933Z,6.53
2017-07-18T22:40:20.533Z,5.50
2017-07-18T22:42:55.156Z,6.53
2017-07-18T22:45:29.627Z,6.10
2017-07-18T22:48:04.188Z,5.87
2017-07-18T22:50:39.307Z,5.10
2017-07-18T22:53:13.784Z,5.72
2017-07-18T22:55:48.274Z,5.97
2017-07-18T22:58:22.774Z,5.40
2017-07-18T23:00:57.308Z,6.00
2017-07-18T23:03:31.748Z,5.20
2017-07-18T23:06:06.244Z,5.40
2017-07-18T23:08:40.755Z,6.60
2017-07-18T23:11:15.271Z,7.05
2017-07-18T23:13:50.439Z,5.85
2017-07-18T23:16:24.808Z,5.30
2017-07-18T23:18:59.684Z,5.57
2017-07-18T23:21:33.987Z,5.10
2017-07-18T23:24:08.538Z,6.40
2017-07-18T23:26:43.030Z,5.68
2017-07-18T23:29:17.751Z,6.25
2017-07-18T23:31:52.279Z,5.55
2017-07-18T23:34:26.930Z,6.97
2017-07-18T23:37:01.496Z,6.10
2017-07-18T23:39:36.992Z,5.75
2017-07-18T23:42:11.615Z,6.30
2017-07-18T23:44:46.023Z,5.65
2017-07-18T23:47:20.583Z,6.10
2017-07-18T23:49:55.151Z,5.50
2017-07-18T23:52:29.695Z,5.87
2017-07-18T23:55:04.907Z,5.95
2017-07-18T23:57:39.471Z,5.62
